createdAt,value
2018-08-23T00:00:17.526Z,6.70
2018-08-23T00:00:51.332Z,7.10
2018-08-23T00:01:24.374Z,7.05
2018-08-23T00:01:57.400Z,7.20
2018-08-23T00:02:30.919Z,7.68
2018-08-23T00:03:03.983Z,7.15
2018-08-23T00:03:37.078Z,7.15
2018-08-23T00:04:10.792Z,7.53
2018-08-23T00:04:44.587Z,7.18
2018-08-23T00:05:17.626Z,7.37
2018-08-23T00:05:50.657Z,8.13
2018-08-23T00:06:23.688Z,8.60
2018-08-23T00:06:56.721Z,7.95
2018-08-23T00:07:29.748Z,7.78
2018-08-23T00:08:03.666Z,7.70
2018-08-23T00:08:36.712Z,7.60
2018-08-23T00:09:09.731Z,7.82
2018-08-23T00:09:42.769Z,6.80
2018-08-23T00:10:16.568Z,7.30
2018-08-23T00:10:50.410Z,8.05
2018-08-23T00:11:24.167Z,7.00
2018-08-23T00:11:57.201Z,7.68
2018-08-23T00:12:30.841Z,7.37
2018-08-23T00:13:03.869Z,7.15
2018-08-23T00:13:36.907Z,6.90
2018-08-23T00:14:09.935Z,7.43
2018-08-23T00:14:42.957Z,8.32
2018-08-23T00:15:15.992Z,7.60
2018-08-23T00:15:49.814Z,7.53
2018-08-23T00:16:22.842Z,8.02
2018-08-23T00:16:55.874Z,7.35
2018-08-23T00:17:28.897Z,7.47
2018-08-23T00:18:02.690Z,7.45
2018-08-23T00:18:36.501Z,7.90
2018-08-23T00:19:09.532Z,8.55
2018-08-23T00:19:42.582Z,6.82
2018-08-23T00:20:15.613Z,7.28
2018-08-23T00:20:49.408Z,7.40
2018-08-23T00:21:22.469Z,7.45
2018-08-23T00:21:55.507Z,7.40
2018-08-23T00:22:28.520Z,7.72
2018-08-23T00:23:02.313Z,7.32
2018-08-23T00:23:36.103Z,6.85
2018-08-23T00:24:09.920Z,8.18
2018-08-23T00:24:42.940Z,9.13
2018-08-23T00:25:15.975Z,7.75
2018-08-23T00:25:49.065Z,8.50
2018-08-23T00:26:22.100Z,7.15
2018-08-23T00:26:55.907Z,8.38
2018-08-23T00:27:28.931Z,7.87
2018-08-23T00:28:01.967Z,7.93
2018-08-23T00:28:35.128Z,8.75
2018-08-23T00:29:08.142Z,8.90
2018-08-23T00:29:41.170Z,8.10
2018-08-23T00:30:14.199Z,7.68
2018-08-23T00:30:47.228Z,8.38
2018-08-23T00:31:21.035Z,7.78
2018-08-23T00:31:54.075Z,8.52
2018-08-23T00:32:27.121Z,7.78
2018-08-23T00:33:00.138Z,7.22
2018-08-23T00:33:33.936Z,7.20
2018-08-23T00:34:06.963Z,7.53
2018-08-23T00:34:39.987Z,7.35
2018-08-23T00:35:13.032Z,7.25
2018-08-23T00:35:46.059Z,7.72
2018-08-23T00:36:19.100Z,7.28
2018-08-23T00:36:52.133Z,8.35
2018-08-23T00:37:25.156Z,7.07
2018-08-23T00:37:58.185Z,7.75
2018-08-23T00:38:31.213Z,8.05
2018-08-23T00:39:04.258Z,7.43
2018-08-23T00:39:37.284Z,7.90
2018-08-23T00:40:10.469Z,7.55
2018-08-23T00:40:43.474Z,7.70
2018-08-23T00:41:16.527Z,7.97
2018-08-23T00:41:50.332Z,8.15
2018-08-23T00:42:23.361Z,7.78
2018-08-23T00:42:56.400Z,7.57
2018-08-23T00:43:29.526Z,7.78
2018-08-23T00:44:02.551Z,8.40
2018-08-23T00:44:35.587Z,7.00
2018-08-23T00:45:08.628Z,6.68
2018-08-23T00:45:41.841Z,7.75
2018-08-23T00:46:14.884Z,8.00
2018-08-23T00:46:47.920Z,7.20
2018-08-23T00:47:20.944Z,8.82
2018-08-23T00:47:53.964Z,8.27
2018-08-23T00:48:26.991Z,7.18
2018-08-23T00:49:00.037Z,7.57
2018-08-23T00:49:33.837Z,7.65
2018-08-23T00:50:07.620Z,7.12
2018-08-23T00:50:41.444Z,7.93
2018-08-23T00:51:14.680Z,7.93
2018-08-23T00:51:47.737Z,7.47
2018-08-23T00:52:20.771Z,7.45
2018-08-23T00:52:53.804Z,7.95
2018-08-23T00:53:26.848Z,7.75
2018-08-23T00:53:59.873Z,7.78
2018-08-23T00:54:33.692Z,7.47
2018-08-23T00:55:11.804Z,7.62
2018-08-23T00:55:44.836Z,7.82
2018-08-23T00:56:17.876Z,7.28
2018-08-23T00:56:50.911Z,7.28
2018-08-23T00:57:23.953Z,7.22
2018-08-23T00:57:57.012Z,7.90
2018-08-23T00:58:30.052Z,7.82
2018-08-23T00:59:03.099Z,7.95
2018-08-23T00:59:36.123Z,7.43
2018-08-23T01:00:09.167Z,7.90
2018-08-23T01:00:42.200Z,7.12
2018-08-23T01:01:15.245Z,7.45
2018-08-23T01:01:48.303Z,7.45
2018-08-23T01:02:21.342Z,7.95
2018-08-23T01:02:54.376Z,7.93
2018-08-23T01:03:27.404Z,7.53
2018-08-23T01:04:00.440Z,8.20
2018-08-23T01:04:34.244Z,7.22
2018-08-23T01:05:07.345Z,7.47
2018-08-23T01:05:40.529Z,8.00
2018-08-23T01:06:13.579Z,7.62
2018-08-23T01:06:46.619Z,7.60
2018-08-23T01:07:19.644Z,7.30
2018-08-23T01:07:52.686Z,7.45
2018-08-23T01:08:25.715Z,7.82
2018-08-23T01:08:58.748Z,7.47
2018-08-23T01:09:32.558Z,8.43
2018-08-23T01:10:05.600Z,8.05
2018-08-23T01:10:38.631Z,8.15
2018-08-23T01:11:11.656Z,8.50
2018-08-23T01:11:45.476Z,8.32
2018-08-23T01:12:18.686Z,7.68
2018-08-23T01:12:51.724Z,7.85
2018-08-23T01:13:24.769Z,7.70
2018-08-23T01:13:57.784Z,7.78
2018-08-23T01:14:30.963Z,7.85
2018-08-23T01:15:04.002Z,7.70
2018-08-23T01:15:37.021Z,7.65
2018-08-23T01:16:10.063Z,8.20
2018-08-23T01:16:43.880Z,7.43
2018-08-23T01:17:16.907Z,7.85
2018-08-23T01:17:49.937Z,7.43
2018-08-23T01:18:22.960Z,8.15
2018-08-23T01:18:56.748Z,8.27
2018-08-23T01:19:29.780Z,7.03
2018-08-23T01:20:02.803Z,7.72
2018-08-23T01:20:36.600Z,7.75
2018-08-23T01:21:09.635Z,7.50
2018-08-23T01:21:42.691Z,7.87
2018-08-23T01:22:15.713Z,7.60
2018-08-23T01:22:48.752Z,7.90
2018-08-23T01:23:21.788Z,6.70
2018-08-23T01:23:54.828Z,7.78
2018-08-23T01:24:27.855Z,7.75
2018-08-23T01:25:00.945Z,8.30
2018-08-23T01:25:33.973Z,8.77
2018-08-23T01:26:07.086Z,7.25
2018-08-23T01:26:40.124Z,7.10
2018-08-23T01:27:13.164Z,7.62
2018-08-23T01:27:46.207Z,8.15
2018-08-23T01:28:19.247Z,7.80
2018-08-23T01:28:53.044Z,7.68
2018-08-23T01:29:26.076Z,7.68
2018-08-23T01:29:59.133Z,8.45
2018-08-23T01:30:32.169Z,8.13
2018-08-23T01:31:05.282Z,8.25
2018-08-23T01:31:38.304Z,8.57
2018-08-23T01:32:11.437Z,8.20
2018-08-23T01:32:44.470Z,8.00
2018-08-23T01:33:17.575Z,8.55
2018-08-23T01:33:50.604Z,7.75
2018-08-23T01:34:23.648Z,7.72
2018-08-23T01:34:56.667Z,7.82
2018-08-23T01:35:30.458Z,7.72
2018-08-23T01:36:04.255Z,8.20
2018-08-23T01:36:38.076Z,8.85
2018-08-23T01:37:11.265Z,7.85
2018-08-23T01:37:44.308Z,7.70
2018-08-23T01:38:18.099Z,8.00
2018-08-23T01:38:51.127Z,7.60
2018-08-23T01:39:24.929Z,7.85
2018-08-23T01:39:57.953Z,8.10
2018-08-23T01:40:30.984Z,8.30
2018-08-23T01:41:04.009Z,8.50
2018-08-23T01:41:37.098Z,8.65
2018-08-23T01:42:10.137Z,8.98
2018-08-23T01:42:43.188Z,8.73
2018-08-23T01:43:16.217Z,8.02
2018-08-23T01:43:49.248Z,8.25
2018-08-23T01:44:22.271Z,8.60
2018-08-23T01:44:55.304Z,8.05
2018-08-23T01:45:29.104Z,8.30
2018-08-23T01:46:02.128Z,8.38
2018-08-23T01:46:35.151Z,8.93
2018-08-23T01:47:08.205Z,8.25
2018-08-23T01:47:41.236Z,8.85
2018-08-23T01:48:14.408Z,8.57
2018-08-23T01:48:48.500Z,8.95
2018-08-23T01:49:21.529Z,8.60
2018-08-23T01:49:54.566Z,8.93
2018-08-23T01:50:27.589Z,9.20
2018-08-23T01:51:00.623Z,8.15
2018-08-23T01:51:33.662Z,8.57
2018-08-23T01:52:06.706Z,9.93
2018-08-23T01:52:39.744Z,9.30
2018-08-23T01:53:13.552Z,9.10
2018-08-23T01:53:46.584Z,9.55
2018-08-23T01:54:19.624Z,8.63
2018-08-23T01:54:52.679Z,8.63
2018-08-23T01:55:25.704Z,8.98
2018-08-23T01:55:58.738Z,8.75
2018-08-23T01:56:31.776Z,8.93
2018-08-23T01:57:04.821Z,9.27
2018-08-23T01:57:37.851Z,8.65
2018-08-23T01:58:11.004Z,10.00
2018-08-23T01:58:44.048Z,8.35
2018-08-23T01:59:17.837Z,9.77
2018-08-23T01:59:50.872Z,9.05
2018-08-23T02:00:23.916Z,9.50
2018-08-23T02:04:45.553Z,9.60
2018-08-23T02:05:18.603Z,9.38
2018-08-23T02:06:24.139Z,9.32
2018-08-23T02:06:57.179Z,8.98
2018-08-23T02:07:30.229Z,9.30
2018-08-23T02:08:03.596Z,9.30
2018-08-23T02:08:36.607Z,8.73
2018-08-23T02:09:09.642Z,9.77
2018-08-23T02:09:42.672Z,9.35
2018-08-23T02:10:15.768Z,8.75
2018-08-23T02:10:48.796Z,9.50
2018-08-23T02:11:21.821Z,8.90
2018-08-23T02:11:54.874Z,9.38
2018-08-23T02:12:28.932Z,9.85
2018-08-23T02:13:01.974Z,9.75
2018-08-23T02:13:35.030Z,9.00
2018-08-23T02:14:08.838Z,8.90
2018-08-23T02:14:42.139Z,9.20
2018-08-23T02:15:15.183Z,10.00
2018-08-23T02:15:48.239Z,10.05
2018-08-23T02:16:21.291Z,10.48
2018-08-23T02:16:54.332Z,9.60
2018-08-23T02:17:27.371Z,9.32
2018-08-23T02:18:00.399Z,9.40
2018-08-23T02:18:33.434Z,9.65
2018-08-23T02:19:07.251Z,9.10
2018-08-23T02:19:40.276Z,9.63
2018-08-23T02:20:13.600Z,9.20
2018-08-23T02:20:46.787Z,9.85
2018-08-23T02:21:19.817Z,8.95
2018-08-23T02:21:52.939Z,9.50
2018-08-23T02:22:59.260Z,9.95
2018-08-23T02:25:43.863Z,9.40
2018-08-23T02:29:33.724Z,10.20
2018-08-23T02:30:39.309Z,8.90
2018-08-23T02:31:45.598Z,9.40
2018-08-23T02:32:51.908Z,9.98
2018-08-23T02:33:24.967Z,8.75
2018-08-23T02:33:58.012Z,9.43
2018-08-23T02:34:31.044Z,9.48
2018-08-23T02:35:04.085Z,9.00
2018-08-23T02:35:37.121Z,9.45
2018-08-23T02:36:10.934Z,9.38
2018-08-23T02:36:44.032Z,9.23
2018-08-23T02:37:17.216Z,9.25
2018-08-23T02:37:50.256Z,9.68
2018-08-23T02:38:23.288Z,9.90
2018-08-23T02:38:56.327Z,8.90
2018-08-23T02:43:17.251Z,8.55
2018-08-23T02:43:50.290Z,8.70
2018-08-23T02:44:23.316Z,9.57
2018-08-23T02:46:33.995Z,9.63
2018-08-23T02:49:17.063Z,9.50
2018-08-23T02:49:50.098Z,9.70
2018-08-23T02:50:23.127Z,9.05
2018-08-23T02:50:56.169Z,8.85
2018-08-23T02:56:56.648Z,8.85
2018-08-23T02:57:29.663Z,8.97
2018-08-23T02:58:02.837Z,9.70
2018-08-23T02:58:35.873Z,9.15
2018-08-23T03:02:25.563Z,9.40
2018-08-23T03:08:26.812Z,10.20
2018-08-23T03:08:59.850Z,10.05
2018-08-23T03:09:32.895Z,10.13
2018-08-23T03:10:05.936Z,9.90
2018-08-23T03:15:35.335Z,9.95
2018-08-23T03:21:35.203Z,9.20
2018-08-23T03:22:08.233Z,9.80
2018-08-23T03:27:34.010Z,10.15
2018-08-23T03:28:07.056Z,9.45
2018-08-23T03:28:40.089Z,10.50
2018-08-23T03:29:46.383Z,9.80
2018-08-23T03:31:24.444Z,9.70
2018-08-23T03:31:57.468Z,9.88
2018-08-23T03:32:32.022Z,11.30
2018-08-23T03:33:05.090Z,10.70
2018-08-23T03:33:38.129Z,10.25
2018-08-23T03:34:11.495Z,10.30
2018-08-23T03:34:44.547Z,10.77
2018-08-23T03:35:17.587Z,10.70
2018-08-23T03:35:50.623Z,10.55
2018-08-23T03:36:23.654Z,10.60
2018-08-23T03:36:56.682Z,10.07
2018-08-23T03:37:30.486Z,10.20
2018-08-23T03:38:04.276Z,10.02
2018-08-23T03:38:38.089Z,10.50
2018-08-23T03:39:11.132Z,10.70
2018-08-23T03:39:44.263Z,9.40
2018-08-23T03:40:17.291Z,10.05
2018-08-23T03:40:50.328Z,10.13
2018-08-23T03:41:23.355Z,9.80
2018-08-23T03:41:56.404Z,8.75
2018-08-23T03:42:29.433Z,9.60
2018-08-23T03:43:02.470Z,9.90
2018-08-23T03:43:36.276Z,10.02
2018-08-23T03:44:09.327Z,10.02
2018-08-23T03:44:42.367Z,9.40
2018-08-23T03:45:16.180Z,9.88
2018-08-23T03:45:49.217Z,9.50
2018-08-23T03:46:22.396Z,10.07
2018-08-23T03:46:55.440Z,9.82
2018-08-23T03:47:28.484Z,9.60
2018-08-23T03:48:01.528Z,9.60
2018-08-23T03:48:34.573Z,9.88
2018-08-23T03:49:07.615Z,10.27
2018-08-23T03:49:41.416Z,9.43
2018-08-23T03:50:15.215Z,9.65
2018-08-23T03:50:49.012Z,9.70
2018-08-23T03:51:22.808Z,10.20
2018-08-23T03:51:56.592Z,9.75
2018-08-23T03:52:31.057Z,10.10
2018-08-23T03:53:04.043Z,9.68
2018-08-23T03:54:09.623Z,10.38
2018-08-23T03:54:42.664Z,10.77
2018-08-23T03:55:15.699Z,9.43
2018-08-23T03:55:48.732Z,10.15
2018-08-23T03:56:21.776Z,10.10
2018-08-23T03:56:55.577Z,10.15
2018-08-23T03:57:28.615Z,9.98
2018-08-23T03:58:01.665Z,9.90
2018-08-23T03:58:34.702Z,9.95
2018-08-23T03:59:07.765Z,9.70
2018-08-23T03:59:40.793Z,10.25
2018-08-23T04:00:13.856Z,9.55
2018-08-23T04:00:46.892Z,9.75
2018-08-23T04:01:19.928Z,9.55
2018-08-23T04:01:52.964Z,9.18
2018-08-23T04:02:26.755Z,9.82
2018-08-23T04:03:00.573Z,10.52
2018-08-23T04:03:33.624Z,10.18
2018-08-23T04:04:06.759Z,10.40
2018-08-23T04:04:40.030Z,9.70
2018-08-23T04:05:13.085Z,10.43
2018-08-23T04:07:25.936Z,10.20
2018-08-23T04:07:58.985Z,9.80
2018-08-23T04:21:33.788Z,10.50
2018-08-23T04:29:46.526Z,10.73
2018-08-23T04:30:20.317Z,10.95
2018-08-23T04:30:53.415Z,11.30
2018-08-23T04:31:27.914Z,12.00
2018-08-23T06:18:55.287Z,14.10
2018-08-23T06:21:38.456Z,13.00
2018-08-23T06:22:11.595Z,13.55
2018-08-23T06:22:44.628Z,13.25
2018-08-23T06:23:18.447Z,12.68
2018-08-23T06:23:51.501Z,14.85
2018-08-23T06:30:26.010Z,13.75
2018-08-23T06:30:59.044Z,15.35
2018-08-23T06:31:32.133Z,15.25
2018-08-23T06:32:05.172Z,12.65
2018-08-23T07:10:13.220Z,16.58
2018-08-23T07:10:46.271Z,18.73
2018-08-23T07:11:20.080Z,17.83
2018-08-23T07:11:53.903Z,15.90
2018-08-23T07:12:26.943Z,17.58
2018-08-23T07:13:00.757Z,17.52
2018-08-23T07:13:33.816Z,16.90
2018-08-23T07:55:58.876Z,14.68
2018-08-23T07:56:32.672Z,16.15
2018-08-23T08:00:56.352Z,14.60
2018-08-23T08:01:30.147Z,15.02
2018-08-23T08:02:03.967Z,15.68
2018-08-23T08:02:37.017Z,17.77
2018-08-23T08:03:10.864Z,16.73
2018-08-23T08:03:45.464Z,15.40
2018-08-23T08:12:29.329Z,14.55
2018-08-23T08:15:13.510Z,13.43
2018-08-23T08:15:46.500Z,15.07
2018-08-23T08:16:19.548Z,15.93
2018-08-23T08:16:52.612Z,16.87
2018-08-23T08:17:25.888Z,17.02
2018-08-23T08:17:58.948Z,15.70
2018-08-23T08:18:32.004Z,16.30
2018-08-23T08:19:05.825Z,16.83
2018-08-23T08:19:38.851Z,18.35
2018-08-23T08:20:11.908Z,16.15
2018-08-23T08:20:45.015Z,17.00
2018-08-23T08:21:18.004Z,15.02
2018-08-23T08:21:51.046Z,16.48
2018-08-23T08:22:24.088Z,15.82
2018-08-23T08:22:57.134Z,17.20
2018-08-23T08:23:30.243Z,15.45
2018-08-23T08:24:03.281Z,16.30
2018-08-23T08:24:36.322Z,13.60
2018-08-23T08:25:09.365Z,15.27
2018-08-23T08:25:42.532Z,14.00
2018-08-23T08:26:15.579Z,15.95
2018-08-23T08:26:48.618Z,14.75
2018-08-23T09:29:51.928Z,17.57
2018-08-23T09:30:24.972Z,14.20
2018-08-23T09:50:02.424Z,16.33
2018-08-23T09:50:35.594Z,15.95
2018-08-23T09:51:08.606Z,15.30
2018-08-23T09:51:41.632Z,15.55
2018-08-23T09:52:14.736Z,14.00
2018-08-23T09:52:47.948Z,13.60
2018-08-23T09:53:20.980Z,14.25
2018-08-23T09:53:54.794Z,14.48
2018-08-23T09:54:27.840Z,14.70
2018-08-23T09:55:00.983Z,14.20
2018-08-23T09:55:34.030Z,13.43
2018-08-23T09:56:07.077Z,13.68
2018-08-23T09:56:40.893Z,14.73
2018-08-23T09:57:13.932Z,14.00
2018-08-23T09:57:47.752Z,13.18
2018-08-23T09:58:20.814Z,13.80
2018-08-23T09:58:54.652Z,14.93
2018-08-23T10:06:32.967Z,10.85
2018-08-23T10:10:04.263Z,12.70
2018-08-23T10:10:57.047Z,11.05
2018-08-23T10:12:44.815Z,10.70
2018-08-23T10:14:19.657Z,10.90
2018-08-23T10:14:55.955Z,11.18
2018-08-23T10:15:44.843Z,12.10
2018-08-23T10:16:17.914Z,10.67
2018-08-23T10:16:50.957Z,10.70
2018-08-23T10:17:39.851Z,11.70
2018-08-23T10:18:31.312Z,10.50
2018-08-23T10:19:04.346Z,8.82
2018-08-23T10:19:37.396Z,8.77
2018-08-23T10:20:26.288Z,7.77
2018-08-23T10:21:00.084Z,8.77
2018-08-23T10:21:33.908Z,8.53
2018-08-23T10:22:06.960Z,8.43
2018-08-23T10:22:39.991Z,8.37
2018-08-23T10:23:13.049Z,9.55
2018-08-23T10:46:03.449Z,7.40
2018-08-23T10:46:36.490Z,8.13
2018-08-23T10:47:09.524Z,9.07
2018-08-23T10:47:42.560Z,6.87
2018-08-23T10:48:15.583Z,7.97
2018-08-23T10:48:48.641Z,8.50
2018-08-23T10:49:21.668Z,8.13
2018-08-23T10:49:54.715Z,8.27
2018-08-23T10:50:27.753Z,8.00
2018-08-23T10:51:00.837Z,8.30
2018-08-23T10:51:33.841Z,7.90
2018-08-23T10:52:06.904Z,8.30
2018-08-23T10:52:39.915Z,7.03
2018-08-23T10:53:12.948Z,7.33
2018-08-23T10:53:45.983Z,7.43
2018-08-23T10:54:19.777Z,7.23
2018-08-23T10:54:52.820Z,7.20
2018-08-23T10:55:25.862Z,8.07
2018-08-23T10:55:58.912Z,7.20
2018-08-23T10:56:31.941Z,7.70
2018-08-23T10:57:05.073Z,7.23
2018-08-23T10:57:38.107Z,10.03
2018-08-23T10:58:11.141Z,7.60
2018-08-23T10:58:44.185Z,7.77
2018-08-23T10:59:17.237Z,7.60
2018-08-23T10:59:50.368Z,7.47
2018-08-23T11:00:23.392Z,7.00
2018-08-23T11:00:56.448Z,8.20
2018-08-23T11:01:29.468Z,8.07
2018-08-23T11:02:02.644Z,7.03
2018-08-23T11:02:35.676Z,7.37
2018-08-23T11:03:08.708Z,7.77
2018-08-23T11:03:41.735Z,7.20
2018-08-23T11:04:15.544Z,7.90
2018-08-23T11:04:48.579Z,7.23
2018-08-23T11:11:15.531Z,6.95
2018-08-23T11:11:48.567Z,6.25
2018-08-23T11:12:21.608Z,6.33
2018-08-23T11:12:54.665Z,6.57
2018-08-23T11:13:42.585Z,6.37
2018-08-23T11:14:15.627Z,6.13
2018-08-23T11:14:48.682Z,6.10
2018-08-23T11:15:21.722Z,6.30
2018-08-23T11:15:54.776Z,5.50
2018-08-23T11:19:25.727Z,6.30
2018-08-23T11:30:02.298Z,4.20
2018-08-23T11:31:40.402Z,3.97
2018-08-23T11:32:14.215Z,3.87
2018-08-23T11:32:47.262Z,4.10
2018-08-23T11:33:21.064Z,3.60
2018-08-23T11:33:54.863Z,3.53
2018-08-23T11:34:27.899Z,3.33
2018-08-23T11:35:00.987Z,3.43
2018-08-23T11:35:34.754Z,3.47
2018-08-23T11:36:07.792Z,3.43
2018-08-23T11:36:40.992Z,3.63
2018-08-23T11:37:14.019Z,3.20
2018-08-23T11:37:47.164Z,3.17
2018-08-23T11:38:20.201Z,3.70
2018-08-23T11:38:53.219Z,3.20
2018-08-23T11:39:26.253Z,4.17
2018-08-23T11:39:59.296Z,3.20
2018-08-23T11:40:32.329Z,2.90
2018-08-23T11:41:05.348Z,3.10
2018-08-23T11:41:39.181Z,2.73
2018-08-23T11:42:12.207Z,3.47
2018-08-23T11:42:46.084Z,2.80
2018-08-23T11:43:19.022Z,3.17
2018-08-23T11:43:52.064Z,3.03
2018-08-23T11:44:25.871Z,3.10
2018-08-23T11:44:58.912Z,2.87
2018-08-23T11:45:32.057Z,2.67
2018-08-23T11:46:05.092Z,2.70
2018-08-23T11:46:38.155Z,3.03
2018-08-23T11:47:11.196Z,2.80
2018-08-23T11:47:44.249Z,2.70
2018-08-23T11:48:17.293Z,2.50
2018-08-23T11:48:50.354Z,2.50
2018-08-23T11:49:23.366Z,2.80
2018-08-23T11:49:56.403Z,3.10
2018-08-23T11:50:30.211Z,2.90
2018-08-23T11:51:03.248Z,2.80
2018-08-23T11:51:36.392Z,2.70
2018-08-23T11:52:09.564Z,2.83
2018-08-23T11:52:42.749Z,2.90
2018-08-23T11:53:15.886Z,2.60
2018-08-23T11:53:48.858Z,2.60
2018-08-23T11:54:21.858Z,2.40
2018-08-23T11:54:54.871Z,2.47
2018-08-23T11:55:27.913Z,2.67
2018-08-23T11:56:00.950Z,2.63
2018-08-23T11:56:34.756Z,2.57
2018-08-23T11:57:07.786Z,2.50
2018-08-23T11:57:40.836Z,2.90
2018-08-23T11:58:13.973Z,2.37
2018-08-23T11:58:46.986Z,2.60
2018-08-23T11:59:20.042Z,2.73
2018-08-23T11:59:53.069Z,2.80
2018-08-23T12:00:26.125Z,2.40
2018-08-23T12:00:59.152Z,2.07
2018-08-23T12:01:32.192Z,2.40
2018-08-23T12:02:05.228Z,2.67
2018-08-23T12:02:38.263Z,2.67
2018-08-23T12:03:12.064Z,2.70
2018-08-23T12:03:45.099Z,2.63
2018-08-23T12:04:18.142Z,2.63
2018-08-23T12:04:51.186Z,2.43
2018-08-23T12:05:24.229Z,3.50
2018-08-23T12:05:57.271Z,2.47
2018-08-23T12:06:30.339Z,2.93
2018-08-23T12:07:03.380Z,2.33
2018-08-23T12:07:36.393Z,2.37
2018-08-23T12:08:09.436Z,2.93
2018-08-23T12:08:43.217Z,2.50
2018-08-23T12:09:17.016Z,2.53
2018-08-23T12:09:50.062Z,2.43
2018-08-23T12:10:23.116Z,2.23
2018-08-23T12:10:56.155Z,2.47
2018-08-23T12:11:29.203Z,2.60
2018-08-23T12:12:02.252Z,2.20
2018-08-23T12:12:35.304Z,2.70
2018-08-23T12:13:08.486Z,2.30
2018-08-23T12:13:41.536Z,2.30
2018-08-23T12:14:14.572Z,2.40
2018-08-23T12:14:48.383Z,2.43
2018-08-23T12:15:22.171Z,2.33
2018-08-23T12:15:55.966Z,2.50
2018-08-23T12:16:30.411Z,2.47
2018-08-23T12:17:03.462Z,2.43
2018-08-23T12:17:36.565Z,2.37
2018-08-23T12:18:09.610Z,2.60
2018-08-23T12:18:42.635Z,2.50
2018-08-23T12:19:16.535Z,2.37
2018-08-23T12:19:49.624Z,2.43
2018-08-23T12:20:22.658Z,2.50
2018-08-23T12:20:55.694Z,2.47
2018-08-23T12:21:29.506Z,2.40
2018-08-23T12:22:02.556Z,2.30
2018-08-23T12:22:36.353Z,2.30
2018-08-23T12:23:10.153Z,2.00
2018-08-23T12:23:43.952Z,2.10
2018-08-23T12:24:16.983Z,2.40
2018-08-23T12:24:50.016Z,2.07
2018-08-23T12:25:23.064Z,2.33
2018-08-23T12:25:56.966Z,2.20
2018-08-23T12:26:29.910Z,2.30
2018-08-23T12:27:02.963Z,2.10
2018-08-23T12:27:36.019Z,2.30
2018-08-23T12:28:09.040Z,2.30
2018-08-23T12:28:42.085Z,2.10
2018-08-23T12:29:15.139Z,2.50
2018-08-23T12:29:48.204Z,2.10
2018-08-23T12:30:21.270Z,2.10
2018-08-23T12:30:54.312Z,2.10
2018-08-23T12:31:27.349Z,2.03
2018-08-23T12:32:01.179Z,2.23
2018-08-23T12:32:34.214Z,2.00
2018-08-23T12:33:07.246Z,2.00
2018-08-23T12:33:40.272Z,2.23
2018-08-23T12:34:14.084Z,2.33
2018-08-23T12:34:47.144Z,2.13
2018-08-23T12:35:20.218Z,2.33
2018-08-23T12:35:54.301Z,2.20
2018-08-23T12:36:27.486Z,2.30
2018-08-23T12:37:00.534Z,2.20
2018-08-23T12:37:51.465Z,2.20
2018-08-23T12:39:39.066Z,2.10
2018-08-23T12:40:17.781Z,2.20
2018-08-23T12:41:06.551Z,2.33
2018-08-23T12:42:44.013Z,2.25
2018-08-23T12:43:17.091Z,2.30
2018-08-23T12:43:50.105Z,2.07
2018-08-23T12:44:23.901Z,2.50
2018-08-23T12:44:57.024Z,2.30
2018-08-23T12:45:30.046Z,2.60
2018-08-23T12:46:03.872Z,2.03
2018-08-23T12:46:37.004Z,2.60
2018-08-23T12:47:10.001Z,2.13
2018-08-23T12:47:43.819Z,2.20
2018-08-23T12:48:16.892Z,2.43
2018-08-23T12:48:49.920Z,2.27
2018-08-23T12:49:23.855Z,1.67
2018-08-23T12:49:56.854Z,2.23
2018-08-23T12:50:29.885Z,2.10
2018-08-23T12:51:03.719Z,2.00
2018-08-23T12:51:36.780Z,1.73
2018-08-23T12:52:09.803Z,2.33
2018-08-23T12:52:42.844Z,2.20
2018-08-23T12:53:15.924Z,2.13
2018-08-23T12:53:48.960Z,2.50
2018-08-23T12:54:22.005Z,2.40
2018-08-23T12:54:55.149Z,2.07
2018-08-23T12:55:28.211Z,2.20
2018-08-23T12:56:01.298Z,1.90
2018-08-23T12:56:34.325Z,1.87
2018-08-23T12:57:07.374Z,1.87
2018-08-23T12:57:40.402Z,2.10
2018-08-23T12:58:13.475Z,2.23
2018-08-23T12:58:46.504Z,2.17
2018-08-23T12:59:19.544Z,2.10
2018-08-23T12:59:52.594Z,2.50
2018-08-23T13:00:25.639Z,2.00
2018-08-23T13:00:58.673Z,2.30
2018-08-23T13:01:32.671Z,2.30
2018-08-23T13:02:05.689Z,2.27
2018-08-23T13:02:38.821Z,2.00
2018-08-23T13:03:11.769Z,1.90
2018-08-23T13:03:44.773Z,2.30
2018-08-23T13:04:17.893Z,2.30
2018-08-23T13:04:50.839Z,2.33
2018-08-23T13:05:23.911Z,2.00
2018-08-23T13:05:56.919Z,2.00
2018-08-23T13:06:30.711Z,2.17
2018-08-23T13:07:04.569Z,2.00
2018-08-23T13:07:37.571Z,2.03
2018-08-23T13:08:11.429Z,2.10
2018-08-23T13:08:44.722Z,2.40
2018-08-23T13:09:17.716Z,2.10
2018-08-23T13:09:51.524Z,2.20
2018-08-23T13:10:25.340Z,2.03
2018-08-23T13:10:58.379Z,2.30
2018-08-23T13:11:31.498Z,2.23
2018-08-23T13:12:04.564Z,2.20
2018-08-23T13:12:37.584Z,2.47
2018-08-23T13:13:10.616Z,2.17
2018-08-23T13:13:43.656Z,2.30
2018-08-23T13:14:16.700Z,2.03
2018-08-23T13:14:49.732Z,2.03
2018-08-23T13:15:22.772Z,2.17
2018-08-23T13:15:55.792Z,2.17
2018-08-23T13:16:28.825Z,2.27
2018-08-23T13:17:01.855Z,2.10
2018-08-23T13:17:34.958Z,2.40
2018-08-23T13:18:07.951Z,2.37
2018-08-23T13:18:41.818Z,1.87
2018-08-23T13:19:14.792Z,2.17
2018-08-23T13:19:47.842Z,2.10
2018-08-23T13:20:20.883Z,2.27
2018-08-23T13:20:53.927Z,2.20
2018-08-23T13:21:26.954Z,2.23
2018-08-23T13:22:00.065Z,2.40
2018-08-23T13:22:33.013Z,2.20
2018-08-23T13:23:06.041Z,2.50
2018-08-23T13:23:39.179Z,2.33
2018-08-23T13:24:12.376Z,2.40
2018-08-23T13:24:45.400Z,2.40
2018-08-23T13:25:18.443Z,2.13
2018-08-23T13:25:52.246Z,2.30
2018-08-23T13:26:26.031Z,2.67
2018-08-23T13:26:59.845Z,2.50
2018-08-23T13:27:32.960Z,2.30
2018-08-23T13:28:05.932Z,2.23
2018-08-23T13:28:38.980Z,2.20
2018-08-23T13:29:12.019Z,2.30
2018-08-23T13:29:45.049Z,2.60
2018-08-23T13:30:18.104Z,2.33
2018-08-23T13:30:51.124Z,2.70
2018-08-23T13:31:24.155Z,2.17
2018-08-23T13:31:57.193Z,2.67
2018-08-23T13:32:30.991Z,2.13
2018-08-23T13:33:04.820Z,2.40
2018-08-23T13:33:37.871Z,2.53
2018-08-23T13:34:10.936Z,2.37
2018-08-23T13:34:44.734Z,2.53
2018-08-23T13:35:18.593Z,2.40
2018-08-23T13:35:51.580Z,2.20
2018-08-23T13:36:24.785Z,2.60
2018-08-23T13:36:57.757Z,2.53
2018-08-23T13:37:30.850Z,2.57
2018-08-23T13:38:03.900Z,2.37
2018-08-23T13:38:36.936Z,2.80
2018-08-23T13:39:09.968Z,2.50
2018-08-23T13:39:42.991Z,2.60
2018-08-23T13:40:16.038Z,2.60
2018-08-23T13:40:49.087Z,2.33
2018-08-23T13:41:22.125Z,2.37
2018-08-23T13:41:55.937Z,2.50
2018-08-23T13:42:28.965Z,2.90
2018-08-23T13:43:01.992Z,2.63
2018-08-23T13:43:35.087Z,2.60
2018-08-23T13:44:08.090Z,2.77
2018-08-23T13:44:41.158Z,2.57
2018-08-23T13:45:14.177Z,2.47
2018-08-23T13:45:47.971Z,2.60
2018-08-23T13:46:21.768Z,2.40
2018-08-23T13:46:55.571Z,2.87
2018-08-23T13:47:29.360Z,2.57
2018-08-23T13:48:03.162Z,3.23
2018-08-23T13:48:36.197Z,2.40
2018-08-23T13:49:10.124Z,2.30
2018-08-23T13:49:43.920Z,2.20
2018-08-23T13:50:16.970Z,2.67
2018-08-23T13:50:50.005Z,2.70
2018-08-23T13:51:23.044Z,2.20
2018-08-23T13:51:57.079Z,2.33
2018-08-23T13:52:30.105Z,2.27
2018-08-23T13:53:03.920Z,2.13
2018-08-23T13:53:36.995Z,2.40
2018-08-23T13:54:10.024Z,2.73
2018-08-23T13:54:43.210Z,2.40
2018-08-23T13:55:16.083Z,2.83
2018-08-23T13:55:49.121Z,2.87
2018-08-23T13:56:22.152Z,2.50
2018-08-23T13:56:55.986Z,2.33
2018-08-23T13:57:29.016Z,2.30
2018-08-23T13:58:02.853Z,2.50
2018-08-23T13:58:35.882Z,2.97
2018-08-23T13:59:09.026Z,2.40
2018-08-23T13:59:41.984Z,2.57
2018-08-23T14:00:15.026Z,2.70
2018-08-23T14:00:48.080Z,2.63
2018-08-23T14:01:21.900Z,2.60
2018-08-23T14:01:54.919Z,2.70
2018-08-23T14:02:27.993Z,2.30
2018-08-23T14:03:00.989Z,2.33
2018-08-23T14:03:34.007Z,2.70
2018-08-23T14:04:07.078Z,2.53
2018-08-23T14:04:40.117Z,2.63
2018-08-23T14:05:13.899Z,2.93
2018-08-23T14:05:47.730Z,2.40
2018-08-23T14:06:20.788Z,2.70
2018-08-23T14:06:54.034Z,2.57
2018-08-23T14:07:27.064Z,2.90
2018-08-23T14:08:00.088Z,2.97
2018-08-23T14:08:33.137Z,2.60
2018-08-23T14:09:06.209Z,2.80
2018-08-23T14:09:39.257Z,2.63
2018-08-23T14:10:12.283Z,2.80
2018-08-23T14:10:45.339Z,2.90
2018-08-23T14:11:18.557Z,2.90
2018-08-23T14:11:51.544Z,2.50
2018-08-23T14:12:25.340Z,3.00
2018-08-23T14:12:58.442Z,2.50
2018-08-23T14:13:31.423Z,2.73
2018-08-23T14:14:04.472Z,2.63
2018-08-23T14:14:37.512Z,2.60
2018-08-23T14:15:10.559Z,2.50
2018-08-23T14:15:43.588Z,2.60
2018-08-23T14:16:16.616Z,2.57
2018-08-23T14:16:49.647Z,2.17
2018-08-23T14:17:22.700Z,2.60
2018-08-23T14:17:55.735Z,2.60
2018-08-23T14:18:28.760Z,2.63
2018-08-23T14:19:01.831Z,2.43
2018-08-23T14:19:35.160Z,2.73
2018-08-23T14:20:08.199Z,2.53
2018-08-23T14:20:41.272Z,2.37
2018-08-23T14:21:14.310Z,2.33
2018-08-23T14:21:47.338Z,2.70
2018-08-23T14:22:20.400Z,2.47
2018-08-23T14:22:53.673Z,2.40